createdAt,value
2018-05-29T00:01:03.142Z,98.10
2018-05-29T00:03:31.487Z,98.10
2018-05-29T00:05:59.831Z,98.20
2018-05-29T00:08:28.157Z,98.50
2018-05-29T00:10:56.490Z,98.60
2018-05-29T00:13:24.820Z,98.50
2018-05-29T00:15:53.159Z,98.70
2018-05-29T00:18:21.477Z,98.70
2018-05-29T00:20:49.817Z,98.70
2018-05-29T00:23:18.134Z,98.80
2018-05-29T00:25:46.473Z,98.80
2018-05-29T00:28:14.795Z,98.70
2018-05-29T00:30:43.138Z,98.80
2018-05-29T00:33:11.459Z,98.70
2018-05-29T00:35:39.799Z,98.90
2018-05-29T00:38:08.113Z,98.60
2018-05-29T00:40:36.468Z,98.60
2018-05-29T00:43:04.790Z,98.50
2018-05-29T00:45:33.112Z,98.50
2018-05-29T00:48:01.453Z,98.50
2018-05-29T00:50:29.783Z,98.30
2018-05-29T00:52:58.135Z,98.30
2018-05-29T00:55:37.110Z,98.60
2018-05-29T00:58:05.456Z,98.30
2018-05-29T01:00:33.770Z,98.40
2018-05-29T01:03:02.106Z,98.20
2018-05-29T01:05:30.426Z,98.20
2018-05-29T01:07:58.786Z,98.20
2018-05-29T01:10:27.121Z,98.20
2018-05-29T01:12:54.701Z,98.20
2018-05-29T01:15:25.922Z,98.30
2018-05-29T01:17:54.274Z,98.30
2018-05-29T01:20:22.590Z,98.40
2018-05-29T01:22:50.905Z,98.40
2018-05-29T01:25:19.244Z,98.70
2018-05-29T01:27:47.559Z,98.40
2018-05-29T01:30:15.893Z,98.30
2018-05-29T01:32:43.446Z,98.30
2018-05-29T01:35:11.786Z,98.10
2018-05-29T01:37:40.104Z,98.20
2018-05-29T01:40:08.448Z,98.30
2018-05-29T01:42:36.773Z,98.30
2018-05-29T01:45:05.109Z,98.00
2018-05-29T01:47:33.460Z,98.20
2018-05-29T01:50:01.801Z,98.50
2018-05-29T01:52:30.121Z,98.60
2018-05-29T01:54:58.457Z,99.00
2018-05-29T01:57:26.778Z,98.50
2018-05-29T01:59:55.127Z,98.50
2018-05-29T02:02:23.437Z,98.40
2018-05-29T02:04:51.778Z,98.30
2018-05-29T02:07:20.104Z,98.30
2018-05-29T02:09:48.416Z,98.30
2018-05-29T02:12:16.756Z,98.30
2018-05-29T02:14:44.310Z,98.70
2018-05-29T02:17:12.641Z,98.20
2018-05-29T02:19:40.958Z,98.00
2018-05-29T02:22:08.526Z,98.00
2018-05-29T02:24:36.089Z,98.00
2018-05-29T02:27:04.436Z,98.50
2018-05-29T02:29:32.758Z,98.50
2018-05-29T02:32:01.095Z,98.60
2018-05-29T02:34:29.411Z,98.90
2018-05-29T02:36:57.748Z,98.80
2018-05-29T02:39:26.064Z,98.80
2018-05-29T02:41:54.409Z,98.80
2018-05-29T02:44:22.735Z,98.70
2018-05-29T02:46:51.083Z,98.80
2018-05-29T02:49:19.402Z,98.70
2018-05-29T02:51:47.721Z,98.40
2018-05-29T02:54:16.087Z,98.40
2018-05-29T02:56:44.414Z,98.50
2018-05-29T02:59:12.748Z,98.60
2018-05-29T03:01:41.087Z,98.70
2018-05-29T03:04:09.430Z,98.80
2018-05-29T03:06:37.745Z,98.90
2018-05-29T03:09:06.092Z,99.00
2018-05-29T03:11:34.410Z,99.00
2018-05-29T03:14:02.753Z,99.00
2018-05-29T03:16:31.083Z,99.30
2018-05-29T03:18:59.427Z,98.60
2018-05-29T03:21:27.742Z,98.70
2018-05-29T03:23:56.089Z,99.10
2018-05-29T03:26:24.415Z,99.20
2018-05-29T03:28:52.756Z,99.20
2018-05-29T03:31:21.082Z,99.20
2018-05-29T03:33:49.401Z,99.10
2018-05-29T03:36:17.753Z,99.00
2018-05-29T03:38:46.075Z,98.90
2018-05-29T03:41:14.414Z,99.00
2018-05-29T03:43:42.737Z,99.20
2018-05-29T03:46:11.085Z,98.90
2018-05-29T03:48:39.397Z,98.80
2018-05-29T03:51:07.735Z,98.60
2018-05-29T03:53:36.053Z,98.50
2018-05-29T03:56:04.389Z,98.70
2018-05-29T03:58:32.710Z,98.80
2018-05-29T04:01:01.045Z,98.80
2018-05-29T04:03:29.362Z,98.60
2018-05-29T04:05:57.701Z,98.40
2018-05-29T04:08:26.025Z,98.40
2018-05-29T04:10:54.369Z,98.00
2018-05-29T04:13:22.691Z,97.20
2018-05-29T04:15:51.088Z,96.60
2018-05-29T04:18:19.371Z,96.10
2018-05-29T04:20:47.689Z,95.60
2018-05-29T04:23:16.031Z,95.30
2018-05-29T04:25:44.356Z,95.00
2018-05-29T04:28:12.703Z,94.90
2018-05-29T04:30:41.024Z,94.80
2018-05-29T04:33:09.369Z,94.70
2018-05-29T04:35:37.689Z,94.30
2018-05-29T04:38:06.026Z,94.10
2018-05-29T04:40:34.353Z,93.40
2018-05-29T04:43:02.716Z,91.80
2018-05-29T04:45:31.047Z,90.00
2018-05-29T04:47:59.406Z,85.70
2018-05-29T04:50:27.728Z,82.20
2018-05-29T04:52:55.319Z,82.20
2018-05-29T04:55:23.638Z,77.30
2018-05-29T04:57:51.959Z,75.20
2018-05-29T05:00:20.303Z,74.20
2018-05-29T05:02:48.626Z,72.80
2018-05-29T05:05:16.966Z,72.00
2018-05-29T05:07:45.305Z,71.70
2018-05-29T05:10:13.645Z,71.50
2018-05-29T05:12:41.962Z,71.10
2018-05-29T05:15:10.305Z,72.10
2018-05-29T05:17:38.634Z,73.10
2018-05-29T05:20:06.977Z,73.90
2018-05-29T05:22:35.303Z,76.10
2018-05-29T05:25:03.637Z,76.40
2018-05-29T05:27:31.958Z,77.00
2018-05-29T05:30:00.323Z,78.20
2018-05-29T05:32:28.927Z,78.30
2018-05-29T05:34:56.510Z,78.10
2018-05-29T05:37:24.835Z,79.00
2018-05-29T05:39:53.172Z,78.90
2018-05-29T05:42:21.486Z,79.60
2018-05-29T05:44:49.834Z,79.90
2018-05-29T05:47:18.151Z,80.00
2018-05-29T05:49:46.493Z,80.00
2018-05-29T05:52:14.815Z,79.60
2018-05-29T05:54:43.157Z,78.60
2018-05-29T05:57:11.466Z,78.10
2018-05-29T05:59:39.806Z,78.30
2018-05-29T06:02:08.145Z,79.40
2018-05-29T06:04:36.459Z,80.10
2018-05-29T06:07:04.794Z,79.80
2018-05-29T06:09:33.106Z,79.00
2018-05-29T06:12:01.443Z,77.50
2018-05-29T06:14:29.763Z,76.30
2018-05-29T06:16:58.105Z,76.00
2018-05-29T06:19:26.431Z,75.10
2018-05-29T06:21:54.803Z,73.90
2018-05-29T06:24:23.147Z,73.40
2018-05-29T06:26:51.491Z,73.30
2018-05-29T06:29:19.805Z,73.80
2018-05-29T06:31:48.143Z,75.20
2018-05-29T06:34:15.691Z,75.10
2018-05-29T06:36:44.039Z,77.70
2018-05-29T06:39:12.350Z,78.10
2018-05-29T06:41:40.687Z,78.10
2018-05-29T06:44:09.013Z,77.70
2018-05-29T06:46:37.358Z,77.20
2018-05-29T06:49:05.690Z,76.80
2018-05-29T06:51:34.029Z,76.70
2018-05-29T06:54:02.341Z,76.20
2018-05-29T06:56:30.680Z,74.40
2018-05-29T06:58:58.997Z,72.00
2018-05-29T07:01:27.334Z,70.00
2018-05-29T07:03:55.653Z,69.70
2018-05-29T07:06:24.031Z,68.50
2018-05-29T07:08:52.367Z,67.50
2018-05-29T07:11:20.702Z,66.70
2018-05-29T07:13:49.024Z,66.30
2018-05-29T07:16:17.362Z,64.80
2018-05-29T07:18:45.676Z,65.10
2018-05-29T07:21:14.015Z,65.20
2018-05-29T07:23:42.331Z,65.00
2018-05-29T07:26:10.675Z,64.70
2018-05-29T07:28:38.993Z,65.00
2018-05-29T07:31:07.328Z,65.50
2018-05-29T07:33:35.650Z,65.80
2018-05-29T07:36:04.001Z,65.60
2018-05-29T07:38:32.329Z,65.90
2018-05-29T07:41:00.642Z,65.40
2018-05-29T07:43:28.983Z,65.30
2018-05-29T07:45:57.309Z,64.20
2018-05-29T07:48:25.668Z,63.30
2018-05-29T07:50:53.997Z,62.60
2018-05-29T07:53:22.335Z,61.20
2018-05-29T07:55:50.694Z,59.90
2018-05-29T07:58:19.031Z,58.60
2018-05-29T08:00:47.355Z,58.40
2018-05-29T08:03:15.693Z,58.60
2018-05-29T08:05:44.010Z,59.00
2018-05-29T08:08:12.350Z,59.20
2018-05-29T08:10:40.714Z,58.40
2018-05-29T08:13:09.016Z,58.10
2018-05-29T08:15:37.343Z,58.00
2018-05-29T08:18:05.680Z,57.10
2018-05-29T08:20:33.997Z,57.00
2018-05-29T08:23:02.340Z,56.70
2018-05-29T08:25:30.654Z,56.10
2018-05-29T08:27:59.002Z,54.90
2018-05-29T08:30:27.325Z,54.20
2018-05-29T08:32:55.667Z,53.90
2018-05-29T08:35:23.994Z,53.60
2018-05-29T08:37:52.350Z,53.10
2018-05-29T08:40:20.670Z,52.60
2018-05-29T08:42:49.014Z,52.30
2018-05-29T08:45:17.392Z,52.30
2018-05-29T08:47:45.766Z,53.30
2018-05-29T08:50:14.077Z,53.70
2018-05-29T08:52:42.424Z,55.00
2018-05-29T08:55:10.734Z,55.10
2018-05-29T08:57:39.081Z,54.60
2018-05-29T09:00:07.393Z,54.00
2018-05-29T09:02:35.738Z,53.60
2018-05-29T09:05:04.065Z,53.90
2018-05-29T09:07:32.428Z,53.00
2018-05-29T09:10:00.741Z,52.60
2018-05-29T09:12:29.066Z,52.20
2018-05-29T09:14:57.416Z,52.20
2018-05-29T09:17:25.738Z,52.50
2018-05-29T09:19:54.109Z,52.60
2018-05-29T09:22:22.434Z,51.20
2018-05-29T09:24:50.297Z,50.50
2018-05-29T09:27:18.617Z,49.90
2018-05-29T09:29:47.049Z,49.70
2018-05-29T09:32:15.314Z,49.70
2018-05-29T09:34:43.655Z,49.60
2018-05-29T09:37:11.978Z,50.00
2018-05-29T09:39:40.322Z,50.30
2018-05-29T09:42:08.649Z,49.40
2018-05-29T09:44:37.054Z,49.30
2018-05-29T09:47:05.366Z,49.50
2018-05-29T09:49:33.715Z,49.50
2018-05-29T09:52:01.269Z,49.50
2018-05-29T09:54:29.672Z,49.40
2018-05-29T09:56:57.961Z,49.10
2018-05-29T09:59:26.305Z,47.90
2018-05-29T10:01:54.634Z,46.50
2018-05-29T10:04:22.977Z,45.40
2018-05-29T10:06:51.307Z,45.50
2018-05-29T10:09:19.649Z,46.20
2018-05-29T10:11:47.982Z,45.20
2018-05-29T10:14:16.324Z,43.50
2018-05-29T10:16:44.638Z,42.60
2018-05-29T10:19:12.983Z,40.00
2018-05-29T10:21:41.309Z,40.50
2018-05-29T10:24:09.645Z,40.70
2018-05-29T10:26:37.973Z,41.40
2018-05-29T10:29:06.321Z,42.70
2018-05-29T10:31:34.646Z,41.50
2018-05-29T10:34:02.990Z,40.20
2018-05-29T10:36:31.309Z,38.50
2018-05-29T10:38:59.654Z,39.20
2018-05-29T10:41:27.977Z,38.70
2018-05-29T10:43:56.319Z,39.40
2018-05-29T10:46:24.634Z,41.90
2018-05-29T10:48:52.944Z,42.20
2018-05-29T10:51:20.542Z,42.20
2018-05-29T10:53:48.876Z,41.80
2018-05-29T10:56:17.250Z,42.70
2018-05-29T10:58:45.577Z,43.60
2018-05-29T11:01:13.917Z,44.60
2018-05-29T11:03:42.224Z,44.10
2018-05-29T11:06:10.562Z,44.30
2018-05-29T11:08:38.878Z,43.60
2018-05-29T11:11:07.224Z,44.40
2018-05-29T11:13:35.547Z,45.20
2018-05-29T11:16:03.892Z,46.30
2018-05-29T11:18:32.206Z,46.50
2018-05-29T11:21:00.549Z,46.90
2018-05-29T11:23:28.867Z,46.60
2018-05-29T11:25:57.215Z,47.40
2018-05-29T11:28:25.529Z,46.50
2018-05-29T11:30:53.889Z,47.20
2018-05-29T11:33:22.208Z,47.30
2018-05-29T11:35:50.549Z,47.40
2018-05-29T11:38:18.881Z,47.70
2018-05-29T11:40:47.226Z,48.60
2018-05-29T11:43:15.546Z,48.70
2018-05-29T11:45:43.894Z,49.30
2018-05-29T11:48:12.218Z,50.30
2018-05-29T11:50:40.561Z,51.50
2018-05-29T11:53:08.877Z,51.50
2018-05-29T11:55:37.210Z,50.90
2018-05-29T11:58:05.544Z,50.60
2018-05-29T12:00:33.910Z,51.30
2018-05-29T12:03:02.230Z,51.90
2018-05-29T12:05:30.565Z,52.50
2018-05-29T12:07:58.880Z,53.30
2018-05-29T12:10:27.235Z,54.30
2018-05-29T12:12:55.562Z,56.00
2018-05-29T12:15:23.897Z,57.50
2018-05-29T12:17:52.213Z,55.10
2018-05-29T12:20:20.554Z,56.70
2018-05-29T12:22:48.889Z,58.50
2018-05-29T12:25:17.275Z,61.30
2018-05-29T12:27:45.590Z,64.20
2018-05-29T12:30:13.920Z,67.40
2018-05-29T12:32:42.262Z,69.70
2018-05-29T12:35:10.579Z,70.70
2018-05-29T12:37:38.918Z,71.40
2018-05-29T12:40:07.247Z,69.90
2018-05-29T12:42:34.803Z,69.80
2018-05-29T12:45:03.096Z,72.70
2018-05-29T12:47:31.411Z,76.00
2018-05-29T12:49:59.716Z,79.30
2018-05-29T12:52:28.040Z,82.70
2018-05-29T12:54:56.341Z,84.70
2018-05-29T12:57:24.681Z,87.20
2018-05-29T12:59:52.520Z,88.70
2018-05-29T13:02:20.843Z,90.10
2018-05-29T13:04:49.142Z,91.10
2018-05-29T13:07:17.458Z,91.00
2018-05-29T13:09:45.754Z,91.30
2018-05-29T13:12:14.075Z,91.40
2018-05-29T13:14:42.370Z,91.20
2018-05-29T13:17:10.709Z,91.10
2018-05-29T13:19:39.002Z,91.20
2018-05-29T13:22:07.320Z,91.10
2018-05-29T13:24:35.616Z,91.20
2018-05-29T13:27:03.988Z,91.40
2018-05-29T13:29:31.482Z,91.40
2018-05-29T13:31:59.809Z,91.80
2018-05-29T13:34:28.108Z,91.90
2018-05-29T13:36:56.435Z,92.00
2018-05-29T13:39:24.735Z,91.90
2018-05-29T13:41:53.059Z,91.80
2018-05-29T13:44:21.363Z,91.30
2018-05-29T13:46:49.678Z,91.00
2018-05-29T13:49:17.989Z,90.90
2018-05-29T13:51:46.318Z,90.90
2018-05-29T13:54:14.621Z,91.00
2018-05-29T13:56:42.934Z,90.50
2018-05-29T13:59:11.235Z,90.20
2018-05-29T14:01:39.553Z,89.50
2018-05-29T14:04:07.851Z,89.50
2018-05-29T14:06:36.191Z,89.60
2018-05-29T14:09:05.344Z,90.30
2018-05-29T14:11:33.607Z,89.90
2018-05-29T14:14:01.159Z,89.90
2018-05-29T14:16:29.453Z,90.10
2018-05-29T14:18:57.766Z,90.00
2018-05-29T14:21:26.063Z,89.20
2018-05-29T14:23:54.379Z,89.00
2018-05-29T14:26:22.671Z,88.60
2018-05-29T14:28:50.991Z,88.40
2018-05-29T14:31:19.290Z,88.00
2018-05-29T14:33:47.611Z,87.40
2018-05-29T14:36:15.915Z,87.30
2018-05-29T14:38:44.238Z,87.10
2018-05-29T14:41:12.531Z,86.80
2018-05-29T14:43:40.854Z,85.70
2018-05-29T14:46:08.390Z,85.60
2018-05-29T14:48:36.712Z,80.90
2018-05-29T14:51:05.014Z,80.50
2018-05-29T14:53:33.330Z,79.60
2018-05-29T14:56:01.630Z,77.90
2018-05-29T14:58:29.179Z,77.80
2018-05-29T15:00:57.471Z,77.00
2018-05-29T15:03:25.786Z,77.30
2018-05-29T15:05:54.095Z,76.00
2018-05-29T15:08:22.404Z,75.70
2018-05-29T15:10:50.694Z,75.50
2018-05-29T15:13:19.008Z,76.10
2018-05-29T15:15:47.303Z,75.20
2018-05-29T15:18:15.631Z,75.40
2018-05-29T15:20:43.930Z,75.30
2018-05-29T15:23:12.256Z,74.40
2018-05-29T15:25:40.558Z,75.10
2018-05-29T15:28:08.880Z,75.90
2018-05-29T15:30:37.186Z,76.10
2018-05-29T15:33:05.503Z,75.80
2018-05-29T15:35:33.802Z,76.70
2018-05-29T15:38:03.293Z,76.20
2018-05-29T15:40:31.596Z,76.20
2018-05-29T15:42:59.910Z,77.20
2018-05-29T15:45:28.207Z,76.80
2018-05-29T15:47:56.499Z,77.20
2018-05-29T15:50:24.819Z,77.90
2018-05-29T15:52:53.124Z,75.90
2018-05-29T15:55:21.847Z,75.30
2018-05-29T15:57:50.142Z,73.90
2018-05-29T16:00:18.455Z,71.80
2018-05-29T16:02:46.752Z,69.20
2018-05-29T16:05:15.073Z,64.80
2018-05-29T16:07:43.370Z,65.90
2018-05-29T16:10:11.687Z,65.40
2018-05-29T16:12:39.983Z,65.60
2018-05-29T16:15:08.299Z,66.20
2018-05-29T16:17:36.591Z,67.40
2018-05-29T16:20:04.902Z,68.00
2018-05-29T16:22:33.195Z,68.60
2018-05-29T16:25:01.509Z,69.10
2018-05-29T16:27:29.802Z,69.80
2018-05-29T16:29:58.116Z,70.40
2018-05-29T16:32:26.411Z,70.70
2018-05-29T16:34:54.732Z,71.10
2018-05-29T16:37:23.023Z,72.10
2018-05-29T16:39:51.343Z,73.70
2018-05-29T16:42:19.639Z,75.20
2018-05-29T16:44:47.955Z,75.70
2018-05-29T16:47:16.247Z,75.30
2018-05-29T16:49:44.558Z,77.20
2018-05-29T16:52:12.852Z,76.00
2018-05-29T16:54:41.175Z,76.80
2018-05-29T16:57:09.462Z,77.60
2018-05-29T16:59:37.779Z,78.60
2018-05-29T17:02:06.072Z,78.50
2018-05-29T17:04:34.382Z,78.10
2018-05-29T17:07:02.671Z,77.20
2018-05-29T17:09:30.983Z,77.90
2018-05-29T17:11:59.278Z,78.70
2018-05-29T17:14:27.590Z,78.80
2018-05-29T17:16:55.882Z,78.90
2018-05-29T17:19:24.196Z,78.90
2018-05-29T17:21:52.506Z,79.30
2018-05-29T17:24:20.828Z,79.80
2018-05-29T17:26:49.115Z,80.30
2018-05-29T17:29:17.411Z,80.60
2018-05-29T17:31:45.726Z,80.80
2018-05-29T17:34:14.019Z,80.50
2018-05-29T17:36:42.330Z,80.40
2018-05-29T17:39:10.618Z,80.30
2018-05-29T17:41:38.935Z,79.90
2018-05-29T17:44:07.231Z,78.80
2018-05-29T17:46:35.543Z,74.40
2018-05-29T17:49:03.842Z,69.40
2018-05-29T17:51:32.167Z,64.60
2018-05-29T17:54:00.456Z,60.70
2018-05-29T17:56:28.772Z,58.70
2018-05-29T17:58:57.064Z,57.60
2018-05-29T18:01:25.378Z,56.90
2018-05-29T18:03:53.662Z,56.50
2018-05-29T18:06:21.979Z,56.60
2018-05-29T18:08:50.280Z,57.20
2018-05-29T18:11:18.632Z,58.20
2018-05-29T18:13:46.922Z,59.30
2018-05-29T18:16:15.231Z,61.10
2018-05-29T18:18:43.520Z,62.70
2018-05-29T18:21:11.842Z,63.90
2018-05-29T18:23:40.139Z,64.80
2018-05-29T18:26:08.462Z,65.40
2018-05-29T18:28:36.758Z,66.50
2018-05-29T18:31:05.083Z,68.70
2018-05-29T18:33:33.385Z,70.70
2018-05-29T18:36:01.716Z,72.60
2018-05-29T18:38:29.262Z,72.70
2018-05-29T18:40:57.579Z,76.70
2018-05-29T18:43:25.884Z,78.80
2018-05-29T18:45:54.206Z,80.50
2018-05-29T18:48:22.519Z,81.90
2018-05-29T18:50:50.839Z,83.10
2018-05-29T18:53:19.130Z,84.40
2018-05-29T18:55:47.438Z,85.60
2018-05-29T18:58:15.743Z,86.40
2018-05-29T19:00:44.070Z,87.50
2018-05-29T19:03:12.375Z,88.40
2018-05-29T19:05:40.671Z,89.60
2018-05-29T19:08:08.990Z,90.00
2018-05-29T19:10:37.279Z,90.30
2018-05-29T19:13:05.591Z,90.70
2018-05-29T19:15:33.896Z,91.20
2018-05-29T19:18:02.211Z,91.40
2018-05-29T19:20:30.515Z,91.90
2018-05-29T19:22:58.899Z,91.50
2018-05-29T19:25:27.144Z,91.50
2018-05-29T19:27:55.463Z,91.60
2018-05-29T19:30:23.761Z,91.50
2018-05-29T19:32:52.079Z,92.00
2018-05-29T19:35:21.132Z,91.80
2018-05-29T19:37:49.411Z,92.10
2018-05-29T19:40:17.705Z,92.30
2018-05-29T19:42:46.017Z,92.50
2018-05-29T19:45:14.314Z,92.70
2018-05-29T19:47:41.879Z,92.70
2018-05-29T19:50:10.204Z,92.90
2018-05-29T19:52:38.514Z,92.80
2018-05-29T19:55:06.819Z,93.00
2018-05-29T19:57:34.382Z,92.90
2018-05-29T20:00:02.740Z,93.30
2018-05-29T20:02:31.062Z,93.20
2018-05-29T20:04:59.373Z,93.40
2018-05-29T20:07:27.694Z,93.40
2018-05-29T20:09:56.003Z,93.30
2018-05-29T20:12:24.318Z,93.30
2018-05-29T20:14:52.625Z,93.50
2018-05-29T20:17:30.791Z,93.70
2018-05-29T20:19:59.145Z,93.70
2018-05-29T20:22:27.427Z,94.00
2018-05-29T20:24:55.722Z,94.10
2018-05-29T20:27:24.039Z,94.30
2018-05-29T20:29:52.338Z,94.60
2018-05-29T20:32:20.647Z,94.70
2018-05-29T20:34:48.942Z,94.70
2018-05-29T20:37:17.271Z,94.70
2018-05-29T20:39:45.567Z,95.00
2018-05-29T20:42:13.861Z,95.20
2018-05-29T20:44:42.659Z,95.10
2018-05-29T20:47:10.948Z,95.10
2018-05-29T20:49:39.258Z,95.10
2018-05-29T20:52:07.551Z,95.20
2018-05-29T20:54:35.106Z,95.20
2018-05-29T20:57:03.394Z,95.50
2018-05-29T20:59:31.711Z,95.70
2018-05-29T21:02:00.002Z,95.80
2018-05-29T21:04:28.307Z,95.90
2018-05-29T21:06:56.621Z,95.90
2018-05-29T21:09:24.910Z,96.50
2018-05-29T21:11:53.194Z,96.20
2018-05-29T21:14:21.528Z,96.50
2018-05-29T21:16:49.823Z,96.40
2018-05-29T21:19:18.127Z,96.50
2018-05-29T21:21:46.451Z,96.70
2018-05-29T21:24:14.747Z,96.90
2018-05-29T21:26:43.067Z,96.90
2018-05-29T21:29:11.355Z,97.10
2018-05-29T21:31:39.669Z,97.10
2018-05-29T21:34:07.960Z,97.30
2018-05-29T21:36:36.283Z,97.40
2018-05-29T21:39:05.314Z,97.40
2018-05-29T21:41:33.635Z,97.40
2018-05-29T21:44:01.925Z,97.50
2018-05-29T21:46:30.267Z,97.50
2018-05-29T21:48:58.539Z,97.40
2018-05-29T21:51:26.866Z,97.20
2018-05-29T21:53:55.162Z,97.30
2018-05-29T21:56:22.686Z,97.20
2018-05-29T21:58:50.995Z,97.70
2018-05-29T22:01:19.278Z,97.50
2018-05-29T22:03:47.599Z,97.60
2018-05-29T22:06:15.892Z,97.60
2018-05-29T22:08:44.202Z,97.60
2018-05-29T22:11:12.495Z,97.60
2018-05-29T22:13:40.799Z,97.60
2018-05-29T22:16:09.096Z,97.70
2018-05-29T22:18:37.410Z,97.70
2018-05-29T22:21:05.707Z,97.80
2018-05-29T22:23:34.021Z,97.80
2018-05-29T22:26:02.322Z,97.80
2018-05-29T22:28:30.643Z,97.90
2018-05-29T22:30:58.940Z,98.00
2018-05-29T22:33:27.231Z,97.90
2018-05-29T22:35:55.543Z,97.80
2018-05-29T22:38:23.840Z,97.90
2018-05-29T22:40:52.159Z,97.90
2018-05-29T22:43:20.450Z,97.90
2018-05-29T22:45:48.761Z,98.00
2018-05-29T22:48:17.059Z,98.20
2018-05-29T22:50:45.371Z,98.20
2018-05-29T22:53:13.672Z,98.10
2018-05-29T22:55:41.984Z,98.10
2018-05-29T22:58:10.276Z,98.20
2018-05-29T23:00:38.596Z,98.20
2018-05-29T23:03:06.887Z,98.30
2018-05-29T23:05:34.496Z,98.30
2018-05-29T23:08:02.752Z,98.10
2018-05-29T23:10:31.045Z,98.10
2018-05-29T23:12:59.358Z,98.40
2018-05-29T23:15:27.643Z,98.60
2018-05-29T23:17:55.960Z,98.70
2018-05-29T23:20:24.250Z,98.70
2018-05-29T23:22:52.558Z,98.70
2018-05-29T23:25:20.852Z,98.80
2018-05-29T23:27:49.170Z,99.00
2018-05-29T23:30:17.465Z,98.90
2018-05-29T23:32:45.786Z,98.80
2018-05-29T23:35:14.092Z,98.90
2018-05-29T23:37:42.408Z,98.80
2018-05-29T23:40:10.712Z,98.70
2018-05-29T23:42:39.052Z,98.80
2018-05-29T23:45:07.351Z,99.10
2018-05-29T23:47:35.642Z,99.00
2018-05-29T23:50:03.966Z,99.00
2018-05-29T23:52:32.272Z,98.80
2018-05-29T23:55:00.588Z,98.60
2018-05-29T23:57:28.110Z,98.60
2018-05-29T23:59:56.444Z,98.60
